Woodbranch, Texas
Current Conditions -  °F | °C
As of 11:53 PM on Wednesday 22 Oct 2014 (Local Time) from KIAH Reporting Station
Scattered Clouds Scattered Clouds  
Wind Chill: 64°   Ceiling: Unl
Heat Index: 64°   Visibility: 10mi
Dew Point: 59°   Wind: 8mph
Humidity: 84%   Direction: 80°E
Pressure: 30.08"   Gusts: NA
Location:  30.1594°N, 95.1973°W
Report Text: KIAH 230453Z 08007KT 10SM FEW035 SCT250 18/15 A3008 RMK AO2 SLP186 T01780150
Loading
Personal Weather Stations






























Interactive Weather Map
Tropical Storm Tracking
New forecast layout! Learn more

10-Day Weather Forecast

Advertisements
Track Severe Weather on mobile